Time;durP1;ratioP1;P1;durP2;ratioP2;P2;SDS_P1;SDS_P2;PMS_P1;PMS_P2;Temp;Humidity;BMP_temperature;BMP_pressure;BME280_temperature;BME280_humidity;BME280_pressure;Samples;Min_cycle;Max_cycle;Signal;HPM_P1;HPM_P2
2023/04/16 00:01:05;;;;;;;30.27;21.40;;;9.80;99.90;;;;;;5040969;28;20419;-86
2023/04/16 00:03:32;;;;;;;26.47;21.37;;;9.90;99.90;;;;;;5041224;28;20488;-87
2023/04/16 00:05:59;;;;;;;24.47;21.07;;;9.80;99.90;;;;;;5041770;28;20476;-87
2023/04/16 00:08:27;;;;;;;30.40;22.50;;;9.80;99.90;;;;;;5041105;28;20528;-86
2023/04/16 00:10:54;;;;;;;28.80;20.73;;;9.80;99.90;;;;;;5042051;28;20539;-87
2023/04/16 00:13:21;;;;;;;31.30;21.83;;;9.80;99.90;;;;;;5041019;28;20531;-86
2023/04/16 00:15:48;;;;;;;26.03;20.47;;;9.80;99.90;;;;;;5040960;28;21030;-85
2023/04/16 00:18:15;;;;;;;28.30;19.57;;;9.80;99.90;;;;;;5040127;28;20959;-86
2023/04/16 00:20:41;;;;;;;27.07;21.23;;;9.80;99.90;;;;;;5040650;28;20455;-86
2023/04/16 00:23:08;;;;;;;27.50;20.80;;;9.80;99.90;;;;;;5041570;28;20903;-86
2023/04/16 00:25:36;;;;;;;28.97;22.20;;;9.90;99.90;;;;;;5041816;28;20506;-85
2023/04/16 00:28:05;;;;;;;31.10;21.10;;;9.90;99.90;;;;;;5048981;28;20457;-85
2023/04/16 00:30:31;;;;;;;26.27;20.77;;;9.90;99.90;;;;;;5044951;28;20879;-86
2023/04/16 00:32:58;;;;;;;30.03;21.47;;;9.80;99.90;;;;;;5041449;28;20928;-86
2023/04/16 00:35:25;;;;;;;25.37;20.40;;;9.80;99.90;;;;;;5041052;28;20483;-86
2023/04/16 00:37:52;;;;;;;28.77;21.50;;;9.80;99.90;;;;;;5040852;28;20521;-87
2023/04/16 00:40:19;;;;;;;26.90;19.70;;;9.90;99.90;;;;;;5039959;28;20524;-86
2023/04/16 00:42:49;;;;;;;23.93;19.70;;;9.90;99.90;;;;;;5042039;28;20492;-85
2023/04/16 00:45:16;;;;;;;27.80;20.80;;;9.70;99.90;;;;;;5040115;28;20503;-87
2023/04/16 00:47:43;;;;;;;28.97;20.40;;;9.80;99.90;;;;;;5039884;28;20487;-86
2023/04/16 00:50:11;;;;;;;26.33;22.93;;;9.80;99.90;;;;;;5039337;28;21050;-87
2023/04/16 00:52:39;;;;;;;30.57;23.13;;;9.80;99.90;;;;;;5039632;28;20449;-86
2023/04/16 00:55:12;;;;;;;28.00;20.13;;;9.90;99.90;;;;;;5039709;28;20453;-87
2023/04/16 00:57:38;;;;;;;29.87;22.67;;;9.80;99.90;;;;;;5040965;28;20445;-87
2023/04/16 01:00:08;;;;;;;30.27;21.97;;;9.70;99.90;;;;;;5047201;28;20446;-85
2023/04/16 01:02:36;;;;;;;29.80;22.33;;;9.70;99.90;;;;;;5053736;28;20527;-86
2023/04/16 01:05:03;;;;;;;30.70;23.30;;;9.90;99.90;;;;;;5057623;28;20449;-85
2023/04/16 01:07:30;;;;;;;28.53;20.50;;;9.80;99.90;;;;;;5056852;28;20456;-87
2023/04/16 01:09:57;;;;;;;26.43;21.90;;;9.90;99.90;;;;;;5050431;28;20466;-85
2023/04/16 01:12:24;;;;;;;30.87;22.20;;;9.80;99.90;;;;;;5037892;28;20451;-85
2023/04/16 01:14:51;;;;;;;27.87;20.83;;;;;;;;;;5049722;28;20449;-85
2023/04/16 01:17:19;;;;;;;29.17;22.67;;;9.90;99.90;;;;;;5053398;28;20521;-86
2023/04/16 01:19:46;;;;;;;29.37;22.90;;;9.80;99.90;;;;;;5042064;28;20480;-85
2023/04/16 01:22:15;;;;;;;31.10;24.37;;;9.80;99.90;;;;;;5041148;28;20919;-85
2023/04/16 01:24:42;;;;;;;30.97;22.73;;;9.80;99.90;;;;;;5038908;28;20955;-86
2023/04/16 01:27:08;;;;;;;25.97;21.50;;;10.00;99.90;;;;;;5039675;28;20476;-86
2023/04/16 01:29:35;;;;;;;34.23;24.47;;;9.90;99.90;;;;;;5040037;28;20472;-86
2023/04/16 01:32:02;;;;;;;27.27;21.47;;;10.00;99.90;;;;;;5039985;28;20444;-85
2023/04/16 01:34:29;;;;;;;28.57;21.90;;;9.90;99.90;;;;;;5040478;28;20460;-86
2023/04/16 01:36:56;;;;;;;29.40;23.00;;;9.90;99.90;;;;;;5022252;28;21015;-85
2023/04/16 01:39:24;;;;;;;28.43;23.00;;;10.00;99.90;;;;;;5045275;28;20482;-85
2023/04/16 01:41:51;;;;;;;30.97;22.30;;;9.80;99.90;;;;;;5058093;28;20438;-85
2023/04/16 01:44:18;;;;;;;26.07;22.83;;;9.90;99.90;;;;;;5049995;28;20532;-86
2023/04/16 01:46:45;;;;;;;32.73;25.17;;;10.00;99.90;;;;;;5041998;28;20489;-86
2023/04/16 01:49:12;;;;;;;31.37;24.27;;;9.90;99.90;;;;;;5039380;28;20456;-85
2023/04/16 01:51:39;;;;;;;30.10;24.17;;;9.90;99.90;;;;;;5039557;28;20459;-85
2023/04/16 01:54:05;;;;;;;32.63;23.93;;;9.90;99.90;;;;;;5039652;28;20465;-86
2023/04/16 01:56:34;;;;;;;36.40;24.20;;;9.90;99.90;;;;;;5041793;28;20497;-86
2023/04/16 01:59:01;;;;;;;35.33;24.90;;;9.90;99.90;;;;;;5043722;28;20528;-86
2023/04/16 02:01:27;;;;;;;35.60;25.93;;;9.90;99.90;;;;;;5044056;28;20444;-87
2023/04/16 02:03:54;;;;;;;34.20;25.13;;;10.00;99.90;;;;;;5043884;28;20531;-86
2023/04/16 02:06:21;;;;;;;35.77;24.93;;;10.00;99.90;;;;;;5044028;28;20515;-86
2023/04/16 02:08:48;;;;;;;33.57;23.93;;;9.90;99.90;;;;;;5048585;28;20548;-85
2023/04/16 02:11:15;;;;;;;33.00;24.50;;;10.00;99.90;;;;;;5048602;28;20462;-87
2023/04/16 02:13:43;;;;;;;32.90;24.50;;;10.00;99.90;;;;;;5044620;28;20448;-87
2023/04/16 02:16:10;;;;;;;31.23;24.67;;;9.90;99.90;;;;;;5043338;28;20536;-86
2023/04/16 02:18:37;;;;;;;35.70;25.20;;;10.00;99.90;;;;;;5044749;28;20547;-86
2023/04/16 02:21:05;;;;;;;33.50;24.50;;;9.90;99.90;;;;;;5054054;28;20475;-86
2023/04/16 02:23:32;;;;;;;34.60;23.93;;;9.90;99.90;;;;;;5061765;28;20487;-86
2023/04/16 02:25:59;;;;;;;33.77;25.90;;;9.80;99.90;;;;;;5061446;28;20489;-85
2023/04/16 02:28:26;;;;;;;36.80;24.60;;;9.80;99.90;;;;;;5060189;28;20474;-85
2023/04/16 02:30:54;;;;;;;34.73;24.40;;;9.80;99.90;;;;;;5061641;28;20463;-86
2023/04/16 02:33:24;;;;;;;29.77;24.13;;;9.90;99.90;;;;;;5060922;28;20445;-85
2023/04/16 02:35:52;;;;;;;31.97;24.50;;;9.90;99.90;;;;;;5060992;28;20452;-86
2023/04/16 02:38:18;;;;;;;36.27;24.10;;;9.90;99.90;;;;;;5060785;28;20482;-86
2023/04/16 02:40:45;;;;;;;34.43;24.13;;;9.90;99.90;;;;;;5045503;28;20535;-85
2023/04/16 02:43:12;;;;;;;30.30;22.10;;;9.80;99.90;;;;;;5042573;28;20546;-86
2023/04/16 02:45:39;;;;;;;28.87;21.77;;;9.80;99.90;;;;;;5046035;28;20579;-86
2023/04/16 02:48:08;;;;;;;32.07;23.77;;;9.80;99.90;;;;;;5053346;28;20545;-85
2023/04/16 02:50:35;;;;;;;33.17;23.63;;;9.80;99.90;;;;;;5043916;28;20453;-87
2023/04/16 02:53:03;;;;;;;30.83;22.83;;;9.70;99.90;;;;;;5044159;28;20453;-86
2023/04/16 02:55:30;;;;;;;33.27;24.63;;;9.80;99.90;;;;;;5046223;28;20559;-86
2023/04/16 02:57:57;;;;;;;35.70;25.37;;;9.70;99.90;;;;;;5045574;28;20541;-86
2023/04/16 03:00:23;;;;;;;39.07;26.73;;;9.70;99.90;;;;;;5042528;28;20484;-86
2023/04/16 03:02:50;;;;;;;35.00;24.77;;;9.60;99.90;;;;;;5043828;28;20484;-85
2023/04/16 03:05:19;;;;;;;35.67;25.70;;;10.00;99.90;;;;;;5042110;28;20567;-86
2023/04/16 03:07:46;;;;;;;37.00;24.63;;;9.70;99.90;;;;;;5041518;28;20481;-86
2023/04/16 03:10:12;;;;;;;35.70;26.03;;;9.70;99.90;;;;;;5042045;28;20532;-87
2023/04/16 03:12:39;;;;;;;32.67;24.80;;;9.70;99.90;;;;;;5043692;28;20539;-86
2023/04/16 03:15:07;;;;;;;35.30;23.90;;;9.70;99.90;;;;;;5059099;28;20943;-85
2023/04/16 03:17:34;;;;;;;37.97;27.30;;;9.70;99.90;;;;;;5045955;28;20942;-87
2023/04/16 03:20:01;;;;;;;32.33;24.43;;;9.70;99.90;;;;;;5040297;28;20449;-86
2023/04/16 03:22:29;;;;;;;36.60;26.47;;;9.70;99.90;;;;;;5041125;28;20535;-85
2023/04/16 03:24:56;;;;;;;36.60;27.03;;;9.60;99.90;;;;;;5042078;28;20488;-86
2023/04/16 03:27:23;;;;;;;38.70;27.70;;;9.60;99.90;;;;;;5043880;28;20523;-85
2023/04/16 03:29:50;;;;;;;41.27;27.80;;;9.50;99.90;;;;;;5041898;28;20794;-86
2023/04/16 03:32:18;;;;;;;45.90;29.73;;;9.50;99.90;;;;;;5041309;28;20952;-86
2023/04/16 03:34:44;;;;;;;38.90;27.20;;;9.50;99.90;;;;;;5041894;28;20484;-86
2023/04/16 03:37:11;;;;;;;41.60;28.70;;;9.60;99.90;;;;;;5040938;28;20493;-86
2023/04/16 03:39:39;;;;;;;45.00;29.43;;;9.50;99.90;;;;;;5039902;28;20444;-86
2023/04/16 03:42:06;;;;;;;44.97;30.60;;;9.50;99.90;;;;;;5039532;28;20862;-86
2023/04/16 03:44:33;;;;;;;45.37;29.77;;;9.40;99.90;;;;;;5039028;28;20574;-85
2023/04/16 03:47:00;;;;;;;46.70;30.40;;;9.40;99.90;;;;;;5037814;28;20475;-86
2023/04/16 03:49:27;;;;;;;40.93;29.00;;;9.40;99.90;;;;;;5039425;28;20473;-86
2023/04/16 03:51:54;;;;;;;52.10;31.03;;;9.40;99.90;;;;;;5039703;28;20448;-86
2023/04/16 03:54:21;;;;;;;49.00;31.27;;;9.40;99.90;;;;;;5039972;28;20445;-87
2023/04/16 03:56:50;;;;;;;50.90;30.07;;;9.30;99.90;;;;;;5039810;28;20490;-85
2023/04/16 03:59:17;;;;;;;47.30;31.70;;;9.30;99.90;;;;;;5039597;28;20531;-86
2023/04/16 04:01:44;;;;;;;50.60;31.77;;;9.20;99.90;;;;;;5040815;28;20447;-86
2023/04/16 04:04:11;;;;;;;47.47;30.07;;;9.30;99.90;;;;;;5040666;28;21049;-85
2023/04/16 04:06:38;;;;;;;45.30;29.50;;;9.30;99.90;;;;;;5040193;28;20479;-85
2023/04/16 04:09:05;;;;;;;49.67;31.30;;;9.30;99.90;;;;;;5040866;28;20454;-87
2023/04/16 04:11:32;;;;;;;60.73;32.63;;;9.30;99.90;;;;;;5043436;28;20448;-85
2023/04/16 04:14:00;;;;;;;44.07;29.77;;;9.40;99.90;;;;;;5051697;28;21002;-85
2023/04/16 04:16:27;;;;;;;47.13;29.87;;;9.40;99.90;;;;;;5053182;28;20529;-84
2023/04/16 04:18:54;;;;;;;56.60;32.40;;;9.40;99.90;;;;;;5052391;28;20543;-86
2023/04/16 04:21:21;;;;;;;46.07;29.83;;;9.30;99.90;;;;;;5046990;28;20479;-86
2023/04/16 04:23:48;;;;;;;43.30;28.07;;;9.30;99.90;;;;;;5025091;28;20503;-88
2023/04/16 04:26:15;;;;;;;49.83;29.17;;;9.30;99.90;;;;;;5040617;28;20528;-86
2023/04/16 04:28:42;;;;;;;47.67;29.60;;;9.40;99.90;;;;;;5041688;28;20483;-86
2023/04/16 04:31:10;;;;;;;50.80;30.00;;;9.30;99.90;;;;;;5042639;28;20449;-86
2023/04/16 04:33:37;;;;;;;42.87;30.60;;;9.20;99.90;;;;;;5041099;28;20459;-87
2023/04/16 04:36:04;;;;;;;46.17;31.33;;;9.20;99.90;;;;;;5041510;28;20508;-87
2023/04/16 04:38:31;;;;;;;40.40;28.37;;;9.30;99.90;;;;;;5040228;28;20497;-86
2023/04/16 04:40:58;;;;;;;43.50;28.63;;;9.30;99.90;;;;;;5041087;28;20885;-85
2023/04/16 04:43:25;;;;;;;51.07;29.53;;;9.10;99.90;;;;;;5041268;28;20543;-86
2023/04/16 04:45:52;;;;;;;44.47;28.27;;;9.40;99.90;;;;;;5053757;28;20460;-86
2023/04/16 04:48:25;;;;;;;46.27;28.37;;;9.30;99.90;;;;;;5058355;28;20508;-87
2023/04/16 04:50:51;;;;;;;40.13;28.40;;;9.20;99.90;;;;;;5058742;28;20428;-86
2023/04/16 04:53:18;;;;;;;45.07;27.70;;;9.40;99.90;;;;;;5043383;28;20921;-86
2023/04/16 04:55:45;;;;;;;44.63;28.30;;;9.40;99.90;;;;;;5041331;28;20478;-86
2023/04/16 04:58:12;;;;;;;41.33;27.30;;;9.40;99.90;;;;;;5041863;28;20836;-86
2023/04/16 05:00:39;;;;;;;42.90;26.83;;;9.30;99.90;;;;;;5041920;28;20500;-86
2023/04/16 05:03:09;;;;;;;40.43;29.00;;;9.30;99.90;;;;;;5041587;28;20504;-86
2023/04/16 05:05:37;;;;;;;42.77;26.03;;;9.30;99.90;;;;;;5083280;22;20483;-84
2023/04/16 05:08:05;;;;;;;48.17;29.10;;;9.20;99.90;;;;;;5038693;28;20414;-84
2023/04/16 05:10:32;;;;;;;43.90;27.77;;;9.20;99.90;;;;;;5037573;28;20438;-84
2023/04/16 05:12:58;;;;;;;47.83;30.17;;;9.30;99.90;;;;;;5026103;28;20506;-84
2023/04/16 05:15:25;;;;;;;48.13;28.77;;;9.00;99.90;;;;;;5034417;28;20485;-84
2023/04/16 05:17:52;;;;;;;49.87;27.57;;;9.20;99.90;;;;;;5035875;28;20449;-84
2023/04/16 05:20:19;;;;;;;41.10;27.23;;;9.30;99.90;;;;;;5033387;28;20438;-84
2023/04/16 05:22:47;;;;;;;45.13;27.63;;;9.30;99.90;;;;;;5031805;28;20535;-84
2023/04/16 05:25:14;;;;;;;45.67;27.97;;;9.30;99.90;;;;;;5023200;28;21095;-84
2023/04/16 05:27:41;;;;;;;46.70;29.23;;;9.30;99.90;;;;;;5021870;28;20500;-84
2023/04/16 05:30:09;;;;;;;45.80;28.17;;;9.30;99.90;;;;;;5019938;28;20532;-86
2023/04/16 05:32:36;;;;;;;47.27;29.40;;;9.20;99.90;;;;;;5018839;28;20462;-85
2023/04/16 05:35:03;;;;;;;43.73;27.83;;;9.30;99.90;;;;;;5017301;28;20936;-85
2023/04/16 05:37:30;;;;;;;40.53;24.57;;;9.30;99.90;;;;;;5016825;28;20472;-86
2023/04/16 05:39:58;;;;;;;40.43;26.37;;;9.30;99.90;;;;;;5017357;28;20485;-85
2023/04/16 05:42:25;;;;;;;42.17;27.07;;;9.20;99.90;;;;;;5018509;28;20423;-86
2023/04/16 05:44:52;;;;;;;40.90;26.17;;;9.20;99.90;;;;;;5017084;28;20482;-85
2023/04/16 05:47:18;;;;;;;39.50;23.87;;;9.20;99.90;;;;;;5017260;28;20483;-84
2023/04/16 05:49:45;;;;;;;39.27;26.47;;;9.20;99.90;;;;;;5021330;28;20458;-84
2023/04/16 05:52:12;;;;;;;40.00;23.93;;;9.10;99.90;;;;;;5016318;28;20966;-84
2023/04/16 05:54:39;;;;;;;46.53;27.17;;;9.20;99.90;;;;;;5017615;28;20448;-84
2023/04/16 05:57:07;;;;;;;39.27;24.57;;;9.20;99.90;;;;;;5018292;28;20505;-84
2023/04/16 05:59:34;;;;;;;41.50;25.70;;;9.20;99.90;;;;;;5016368;28;20950;-85
2023/04/16 06:02:01;;;;;;;39.93;24.57;;;9.10;99.90;;;;;;5017076;28;20551;-84
2023/04/16 06:04:29;;;;;;;39.53;24.23;;;9.20;99.90;;;;;;5017409;28;20831;-84
2023/04/16 06:06:58;;;;;;;39.77;24.50;;;9.30;99.90;;;;;;5017228;28;20539;-84
2023/04/16 06:09:25;;;;;;;33.60;24.10;;;9.20;99.90;;;;;;5017070;28;20415;-84
2023/04/16 06:11:52;;;;;;;39.80;26.27;;;9.20;99.90;;;;;;5017646;28;20420;-84
2023/04/16 06:14:20;;;;;;;44.00;26.10;;;9.20;99.90;;;;;;5016459;28;20971;-84
2023/04/16 06:16:47;;;;;;;46.47;25.70;;;9.20;99.90;;;;;;5023456;28;21003;-84
2023/04/16 06:19:14;;;;;;;43.17;25.97;;;9.20;99.90;;;;;;5029787;28;20444;-84
2023/04/16 06:21:41;;;;;;;45.13;24.10;;;9.10;99.90;;;;;;5027471;28;20464;-84
2023/04/16 06:24:08;;;;;;;46.97;27.10;;;9.10;99.90;;;;;;5028004;28;21057;-84
2023/04/16 06:26:34;;;;;;;45.27;26.40;;;9.10;99.90;;;;;;5027612;28;20537;-84
2023/04/16 06:29:01;;;;;;;41.63;25.90;;;9.20;99.90;;;;;;5035571;28;20468;-84
2023/04/16 06:31:30;;;;;;;46.70;27.07;;;9.30;99.90;;;;;;5036246;28;20430;-85
2023/04/16 06:33:57;;;;;;;39.53;25.50;;;9.30;99.90;;;;;;5032554;28;20448;-84
2023/04/16 06:36:24;;;;;;;40.77;24.80;;;9.30;99.90;;;;;;5016615;28;21047;-85
2023/04/16 06:38:50;;;;;;;40.00;23.90;;;9.30;99.90;;;;;;5019165;28;20481;-84
2023/04/16 06:41:17;;;;;;;39.90;25.37;;;9.30;99.90;;;;;;5016632;28;20457;-84
2023/04/16 06:43:44;;;;;;;38.03;25.37;;;9.30;99.90;;;;;;5019667;28;20488;-84
2023/04/16 06:46:11;;;;;;;34.93;23.00;;;9.30;99.90;;;;;;5031157;28;20477;-84
2023/04/16 06:48:39;;;;;;;40.97;24.93;;;9.30;99.90;;;;;;5040584;28;20520;-84
2023/04/16 06:51:06;;;;;;;40.53;26.03;;;9.30;99.90;;;;;;5025028;28;20452;-85
2023/04/16 06:53:33;;;;;;;39.60;23.93;;;;;;;;;;5019314;28;20868;-86
2023/04/16 06:56:01;;;;;;;36.37;24.90;;;9.30;99.90;;;;;;5021654;28;20500;-85
2023/04/16 06:58:27;;;;;;;42.23;24.10;;;9.40;99.90;;;;;;5020593;28;20542;-85
2023/04/16 07:00:54;;;;;;;44.10;24.80;;;9.40;99.90;;;;;;5019416;28;20503;-85
2023/04/16 07:03:21;;;;;;;40.33;22.87;;;9.50;99.90;;;;;;5019640;28;20449;-86
2023/04/16 07:05:49;;;;;;;40.97;25.43;;;9.50;99.90;;;;;;5023439;28;20473;-83
2023/04/16 07:08:24;;;;;;;40.10;25.37;;;9.60;99.90;;;;;;5019048;28;20804;-84
2023/04/16 07:10:52;;;;;;;36.20;24.83;;;9.60;99.90;;;;;;5019681;28;20425;-86
2023/04/16 07:13:19;;;;;;;39.27;24.60;;;9.60;99.90;;;;;;5020980;28;20488;-85
2023/04/16 07:15:46;;;;;;;39.03;25.10;;;9.60;99.90;;;;;;5019886;28;20476;-86
2023/04/16 07:18:13;;;;;;;34.10;24.20;;;9.60;99.90;;;;;;5021020;28;20869;-85
2023/04/16 07:20:40;;;;;;;41.60;24.37;;;9.60;99.90;;;;;;5020696;28;20540;-85
2023/04/16 07:23:08;;;;;;;42.70;25.40;;;9.60;99.90;;;;;;5019826;28;20449;-86
2023/04/16 07:25:35;;;;;;;35.00;24.20;;;9.80;99.90;;;;;;5021415;28;20540;-85
2023/04/16 07:28:03;;;;;;;38.43;24.07;;;9.60;99.90;;;;;;5019375;28;20958;-84
2023/04/16 07:30:33;;;;;;;30.87;20.97;;;9.50;99.90;;;;;;5029185;28;20465;-83
2023/04/16 07:33:00;;;;;;;37.50;23.10;;;9.60;99.90;;;;;;5037222;28;20458;-85
2023/04/16 07:35:27;;;;;;;37.60;23.03;;;9.50;99.90;;;;;;5037284;28;20524;-85
2023/04/16 07:37:54;;;;;;;33.83;22.57;;;9.60;99.90;;;;;;5024232;28;20534;-85
2023/04/16 07:40:23;;;;;;;33.87;22.77;;;9.60;99.90;;;;;;5022865;28;20494;-85
2023/04/16 07:42:50;;;;;;;30.83;21.53;;;9.60;99.90;;;;;;5020040;28;20449;-85
2023/04/16 07:45:17;;;;;;;31.97;21.83;;;9.60;99.90;;;;;;5020501;28;20489;-85
2023/04/16 07:47:45;;;;;;;37.87;22.53;;;9.60;99.90;;;;;;5021328;28;20552;-85
2023/04/16 07:50:12;;;;;;;29.33;21.10;;;9.60;99.90;;;;;;5018139;28;20492;-86
2023/04/16 07:52:40;;;;;;;36.03;22.40;;;9.60;99.90;;;;;;5019132;28;20823;-86
2023/04/16 07:55:07;;;;;;;32.83;21.60;;;9.60;99.90;;;;;;5018359;28;20463;-83
2023/04/16 07:57:36;;;;;;;32.00;20.53;;;9.70;99.90;;;;;;5019735;28;20560;-84
2023/04/16 08:00:04;;;;;;;32.60;21.33;;;9.60;99.90;;;;;;5022229;28;20546;-84
2023/04/16 08:02:31;;;;;;;32.40;21.07;;;9.60;99.90;;;;;;5024777;28;20449;-83
2023/04/16 08:04:58;;;;;;;30.50;22.03;;;9.90;99.90;;;;;;5030199;28;20480;-83
2023/04/16 08:07:25;;;;;;;34.97;20.77;;;9.60;99.90;;;;;;5031152;28;20500;-83
2023/04/16 08:09:53;;;;;;;30.80;21.80;;;9.60;99.90;;;;;;5030919;28;20437;-83
2023/04/16 08:12:21;;;;;;;30.47;20.40;;;9.60;99.90;;;;;;5024272;28;20453;-83
2023/04/16 08:14:49;;;;;;;29.93;20.77;;;9.50;99.90;;;;;;5022512;28;20477;-84
2023/04/16 08:17:16;;;;;;;34.43;21.33;;;9.50;99.90;;;;;;5021723;28;20473;-84
2023/04/16 08:19:43;;;;;;;29.33;20.70;;;9.60;99.90;;;;;;5028369;28;20512;-84
2023/04/16 08:22:11;;;;;;;35.80;21.47;;;9.60;99.90;;;;;;5031666;28;20448;-85
2023/04/16 08:24:38;;;;;;;30.20;20.13;;;9.60;99.90;;;;;;5019916;28;20486;-85
2023/04/16 08:27:05;;;;;;;37.90;21.93;;;9.60;99.90;;;;;;5020529;28;20501;-84
2023/04/16 08:29:33;;;;;;;36.53;22.00;;;9.50;99.90;;;;;;5019991;28;20826;-85
2023/04/16 08:32:01;;;;;;;35.47;22.90;;;9.80;99.90;;;;;;5022683;28;20972;-84
2023/04/16 08:34:28;;;;;;;33.03;21.47;;;9.60;99.90;;;;;;5034597;28;20445;-82
2023/04/16 08:46:45;;;;;;;34.60;20.90;;;;;;;;;;5037387;28;20858;-83
2023/04/16 08:49:23;;;;;;;34.37;20.30;;;9.60;99.90;;;;;;5040638;28;20430;-83
2023/04/16 08:51:59;;;;;;;27.50;18.63;;;9.60;99.90;;;;;;5045855;28;20442;-83
2023/04/16 08:54:44;;;;;;;27.80;19.10;;;9.60;99.90;;;;;;5045837;28;20443;-83
2023/04/16 09:34:32;;;;;;;33.67;22.50;;;10.00;99.90;;;;;;4958160;22;20452;-87
2023/04/16 09:37:15;;;;;;;32.73;22.73;;;9.90;99.90;;;;;;5040674;28;20486;-87
2023/04/16 09:39:42;;;;;;;33.37;21.30;;;10.00;99.90;;;;;;5042160;28;20433;-85
2023/04/16 09:42:09;;;;;;;33.47;19.97;;;10.00;99.90;;;;;;5040925;28;20508;-84
2023/04/16 09:44:37;;;;;;;26.70;18.90;;;10.10;99.90;;;;;;5043846;28;20499;-82
2023/04/16 09:47:07;;;;;;;28.77;19.20;;;10.00;99.90;;;;;;5043422;28;20461;-82
2023/04/16 09:49:43;;;;;;;28.27;20.30;;;10.10;99.90;;;;;;5040707;28;20453;-84
2023/04/16 09:52:14;;;;;;;27.80;18.50;;;10.10;99.90;;;;;;5039828;28;20448;-81
2023/04/16 09:54:46;;;;;;;30.87;21.60;;;10.10;99.90;;;;;;5040841;28;20492;-83
2023/04/16 09:57:13;;;;;;;30.00;18.87;;;10.00;99.90;;;;;;5040499;28;20429;-83
2023/04/16 09:59:40;;;;;;;31.43;21.47;;;9.90;99.90;;;;;;5038830;28;20436;-82
2023/04/16 10:02:08;;;;;;;23.93;17.97;;;10.10;99.90;;;;;;5037832;28;20454;-81
2023/04/16 10:04:47;;;;;;;24.13;17.70;;;10.00;99.90;;;;;;5038239;28;20518;-81
2023/04/16 10:07:14;;;;;;;26.30;18.60;;;10.10;99.90;;;;;;5038759;28;20439;-82
2023/04/16 10:09:41;;;;;;;28.40;19.20;;;9.70;99.90;;;;;;5038935;28;20668;-82
2023/04/16 10:12:08;;;;;;;27.23;19.50;;;10.00;99.90;;;;;;5037890;28;20492;-83
2023/04/16 10:14:35;;;;;;;24.40;18.70;;;10.20;99.90;;;;;;5037887;28;20528;-82
2023/04/16 10:17:03;;;;;;;27.80;19.40;;;10.30;99.90;;;;;;5038990;28;21009;-81
2023/04/16 10:19:31;;;;;;;26.63;18.23;;;10.30;99.90;;;;;;5040329;28;20494;-83
2023/04/16 10:21:59;;;;;;;27.53;19.23;;;10.20;99.90;;;;;;5041022;28;20499;-82
2023/04/16 10:24:27;;;;;;;27.93;20.23;;;10.10;99.90;;;;;;5042190;28;20448;-83
2023/04/16 10:26:55;;;;;;;24.10;19.10;;;10.10;99.90;;;;;;5044720;28;20875;-83
2023/04/16 10:29:23;;;;;;;28.70;17.33;;;10.20;99.90;;;;;;5047375;28;20448;-83
2023/04/16 10:31:51;;;;;;;29.53;20.27;;;10.20;99.90;;;;;;5059653;28;20448;-82
2023/04/16 10:34:19;;;;;;;26.00;19.20;;;10.40;99.90;;;;;;5061079;28;20439;-81
2023/04/16 10:36:49;;;;;;;27.03;19.70;;;10.20;99.90;;;;;;5061106;28;20453;-82
2023/04/16 10:39:19;;;;;;;30.20;20.03;;;9.90;99.90;;;;;;5060732;28;20455;-82
2023/04/16 10:41:46;;;;;;;30.60;21.57;;;10.00;99.90;;;;;;5059928;28;20437;-82
2023/04/16 10:44:13;;;;;;;27.57;19.70;;;9.80;99.90;;;;;;5060066;28;20454;-82
2023/04/16 10:46:42;;;;;;;28.17;20.50;;;10.20;99.90;;;;;;5057227;28;20492;-82
2023/04/16 10:49:16;;;;;;;28.13;20.47;;;10.20;99.90;;;;;;5047435;28;20512;-82
2023/04/16 10:51:53;;;;;;;33.53;22.10;;;10.40;99.90;;;;;;5047356;28;20553;-84
2023/04/16 10:54:25;;;;;;;33.80;22.33;;;10.30;99.90;;;;;;5046995;28;20422;-82
2023/04/16 10:56:53;;;;;;;34.10;21.40;;;10.50;99.90;;;;;;5047498;28;20432;-82
2023/04/16 10:59:21;;;;;;;34.27;23.33;;;10.60;99.90;;;;;;5045557;28;20440;-84
2023/04/16 11:01:51;;;;;;;29.57;22.50;;;10.60;99.90;;;;;;5046329;28;20536;-80
2023/04/16 11:04:29;;;;;;;30.40;21.50;;;10.80;99.90;;;;;;5058571;28;20436;-85
2023/04/16 11:07:04;;;;;;;24.27;19.03;;;10.60;99.90;;;;;;5059923;28;20459;-87
2023/04/16 11:10:05;;;;;;;30.77;21.33;;;10.60;99.90;;;;;;5058664;28;20480;-84
2023/04/16 11:12:37;;;;;;;33.70;22.00;;;10.60;99.90;;;;;;4981190;28;20433;-87
2023/04/16 11:15:05;;;;;;;29.00;21.30;;;10.70;99.90;;;;;;5039795;28;20960;-87
2023/04/16 11:17:36;;;;;;;32.13;22.27;;;10.80;99.90;;;;;;5052085;28;20479;-86
2023/04/16 11:20:05;;;;;;;24.57;19.37;;;10.70;99.90;;;;;;5050465;28;20432;-88
2023/04/16 11:22:35;;;;;;;31.63;22.40;;;10.70;99.90;;;;;;5051775;28;20519;-88
2023/04/16 11:25:04;;;;;;;30.10;20.10;;;10.70;99.90;;;;;;5046390;28;20485;-86
2023/04/16 11:27:31;;;;;;;29.43;20.43;;;11.00;99.90;;;;;;5046298;28;20449;-85
2023/04/16 11:30:03;;;;;;;31.70;22.50;;;10.80;99.90;;;;;;5044602;28;20539;-85
2023/04/16 11:32:33;;;;;;;30.77;22.00;;;11.20;99.90;;;;;;5045393;28;20433;-86
2023/04/16 11:35:03;;;;;;;34.37;23.90;;;10.80;99.90;;;;;;5046336;28;20497;-87
2023/04/16 11:37:34;;;;;;;27.67;21.50;;;11.10;99.90;;;;;;5049306;28;20446;-84
2023/04/16 11:40:03;;;;;;;30.20;22.37;;;11.30;99.90;;;;;;5053631;28;20446;-84
2023/04/16 11:42:31;;;;;;;24.73;19.00;;;11.20;99.90;;;;;;5057367;28;20449;-83
2023/04/16 11:45:00;;;;;;;24.07;18.63;;;11.10;1.00;;;;;;5055795;28;20484;-84
2023/04/16 11:47:27;;;;;;;26.93;19.90;;;11.20;34.50;;;;;;5055550;28;20502;-82
2023/04/16 11:53:37;;;;;;;29.43;20.00;;;11.30;99.90;;;;;;4995958;28;20486;-87
2023/04/16 11:56:08;;;;;;;23.53;19.40;;;;;;;;;;5055265;28;20476;-87
2023/04/16 11:58:36;;;;;;;25.30;17.73;;;11.10;87.60;;;;;;5052836;28;20769;-87
2023/04/16 12:01:03;;;;;;;20.50;16.87;;;;;;;;;;5053478;28;20492;-89
2023/04/16 12:03:45;;;;;;;23.17;19.70;;;11.20;99.90;;;;;;5052515;28;20479;-88
2023/04/16 12:06:12;;;;;;;23.10;18.30;;;;;;;;;;5052721;28;20492;-88
2023/04/16 12:08:40;;;;;;;20.43;17.13;;;11.00;99.90;;;;;;5047181;28;20485;-88
2023/04/16 12:11:09;;;;;;;27.17;20.10;;;;;;;;;;5055169;28;20826;-89
2023/04/16 12:14:15;;;;;;;22.10;18.70;;;11.10;61.90;;;;;;5048380;28;20461;-89
2023/04/16 12:19:31;;;;;;;23.43;18.40;;;11.20;99.90;;;;;;5429367;22;20484;-87
2023/04/16 12:22:42;;;;;;;23.77;18.33;;;11.10;10.70;;;;;;5057734;28;20441;-88
2023/04/16 12:25:17;;;;;;;26.30;20.27;;;11.00;1.00;;;;;;5057528;28;20572;-87
2023/04/16 12:28:01;;;;;;;24.53;18.40;;;11.00;1.00;;;;;;5048340;28;20427;-89
2023/04/16 12:31:37;;;;;;;26.60;20.40;;;10.90;1.00;;;;;;5045696;28;20421;-89
2023/04/16 12:34:06;;;;;;;24.73;19.67;;;10.80;1.00;;;;;;5036799;28;20472;-91
2023/04/16 12:36:47;;;;;;;30.23;21.50;;;10.90;1.00;;;;;;5045113;28;20466;-91
2023/04/16 12:39:17;;;;;;;26.80;20.13;;;10.80;1.00;;;;;;5043517;28;20440;-89
2023/04/16 12:41:45;;;;;;;26.37;21.67;;;10.80;7.30;;;;;;5044578;28;20812;-89
2023/04/16 12:47:05;;;;;;;23.10;17.50;;;;;;;;;;5044053;28;20479;-88
2023/04/16 12:49:47;;;;;;;22.97;18.60;;;10.70;32.30;;;;;;5045991;28;20441;-90
2023/04/16 12:52:16;;;;;;;23.43;17.80;;;;;;;;;;5043137;28;20435;-88
2023/04/16 12:54:45;;;;;;;21.30;17.40;;;;;;;;;;5046656;28;20511;-88
2023/04/16 12:57:13;;;;;;;20.47;17.73;;;;;;;;;;5041487;28;20872;-89
2023/04/16 12:59:40;;;;;;;20.20;16.97;;;10.50;1.00;;;;;;5045981;28;20483;-89
2023/04/16 13:02:09;;;;;;;18.90;14.90;;;10.70;1.00;;;;;;5049450;28;20472;-89
2023/04/16 13:04:43;;;;;;;19.40;15.70;;;10.50;1.00;;;;;;5049346;28;20940;-88
2023/04/16 13:07:12;;;;;;;24.80;17.57;;;10.50;1.00;;;;;;5043260;28;20458;-90
2023/04/16 13:09:47;;;;;;;21.30;16.97;;;10.40;97.40;;;;;;5051887;28;20429;-89
2023/04/16 13:12:17;;;;;;;20.50;16.83;;;;;;;;;;5056945;28;20482;-89
2023/04/16 13:19:22;;;;;;;;;;;;;;;;;;;;;
2023/04/16 13:21:56;;;;;;;16.63;14.87;;;10.20;99.90;;;;;;5044637;28;20475;-87
2023/04/16 13:24:24;;;;;;;23.23;14.43;;;;;;;;;;5050254;28;20657;-88
2023/04/16 13:27:01;;;;;;;14.80;13.30;;;10.00;99.90;;;;;;5050180;28;21004;-88
2023/04/16 13:32:30;;;;;;;17.37;14.20;;;10.20;99.90;;;;;;5039341;28;20932;-89
2023/04/16 13:34:59;;;;;;;21.40;17.30;;;10.00;99.90;;;;;;5040660;28;20499;-89
2023/04/16 13:37:39;;;;;;;17.37;15.50;;;10.00;99.90;;;;;;5041188;28;20448;-89
2023/04/16 13:40:07;;;;;;;18.90;15.43;;;10.10;99.90;;;;;;5040300;28;20444;-88
2023/04/16 13:42:39;;;;;;;21.50;14.80;;;10.10;99.90;;;;;;5040252;28;20449;-88
2023/04/16 13:45:08;;;;;;;17.53;15.13;;;10.40;99.90;;;;;;5168553;22;20532;-86
2023/04/16 13:47:36;;;;;;;19.00;16.30;;;;;;;;;;5042768;28;20473;-87
2023/04/16 13:50:03;;;;;;;15.53;13.57;;;10.60;99.90;;;;;;5041672;28;20996;-87
2023/04/16 13:52:31;;;;;;;17.90;14.83;;;10.80;99.90;;;;;;5042830;28;20503;-87